Labrador — 5BXP2 — position and weather

sailwx.info

Track history (hours):
 
Tides and Currents Weather Stations Pressure Air Temp Water Temp Dewpoint Dewpoint Depression Visibility Wind Speed Wind Dir Waves Ship Positions

Labrador

Last reported at 2018-Feb-12 12:24 UTC. Time now 2018-Feb-18 07:19 UTC.
Position N 36°25' E 014°05'.

Length 186 m; draft 6.2 m.

Type: Cargo ship. MMSI: 209008000.

Date/timePositionNaut miles runAvg speedWind from/ knotsBaromVisibWave heightAir tempDewpointWater temp
2018-Feb-12 12:24N 36°25' E 014°05'411.2
2018-Feb-12 12:00N 36°23' E 014°11'611.3
2018-Feb-12 11:30N 36°21' E 014°17'611.7
2018-Feb-12 11:00N 36°19' E 014°24'611.8
2018-Feb-12 10:30N 36°17' E 014°31'611.8
2018-Feb-12 10:00N 36°17' E 014°38'  
2018-Feb-04 11:07N 36°17' E 014°44'1413.0
2018-Feb-04 10:00N 36°19' E 014°26'1313.2
2018-Feb-04 09:00N 36°23' E 014°11'912.7
2018-Feb-04 08:17N 36°26' E 013°60'13513.6
2018-Feb-03 22:21N 37°15' E 011°23'513.9
2018-Feb-03 22:01N 37°17' E 011°18'714.5
2018-Feb-03 21:31N 37°21' E 011°09'714.0
2018-Feb-03 21:01N 37°22' E 011°01'612.8
2018-Feb-03 20:30N 37°19' E 010°53'713.1
2018-Feb-03 20:00N 37°15' E 010°47'  
Track history (hours):
 
Tides and Currents Weather Stations Pressure Air Temp Water Temp Dewpoint Dewpoint Depression Visibility Wind Speed Wind Dir Waves Ship Positions

Labrador

Last reported at 2018-Feb-12 12:24 UTC. Time now 2018-Feb-18 07:19 UTC.
Position N 36°25' E 014°05'.

Length 186 m; draft 6.2 m.

Type: Cargo ship. MMSI: 209008000.

Date/timePositionNaut miles runAvg speedWind from/ knotsBaromVisibWave heightAir tempDewpointWater temp
2018-Feb-12 12:24N 36°25' E 014°05'411.2
2018-Feb-12 12:00N 36°23' E 014°11'611.3
2018-Feb-12 11:30N 36°21' E 014°17'611.7
2018-Feb-12 11:00N 36°19' E 014°24'611.8
2018-Feb-12 10:30N 36°17' E 014°31'611.8
2018-Feb-12 10:00N 36°17' E 014°38'  
2018-Feb-04 11:07N 36°17' E 014°44'1413.0
2018-Feb-04 10:00N 36°19' E 014°26'1313.2
2018-Feb-04 09:00N 36°23' E 014°11'912.7
2018-Feb-04 08:17N 36°26' E 013°60'13513.6
2018-Feb-03 22:21N 37°15' E 011°23'513.9
2018-Feb-03 22:01N 37°17' E 011°18'714.5
2018-Feb-03 21:31N 37°21' E 011°09'714.0
2018-Feb-03 21:01N 37°22' E 011°01'612.8
2018-Feb-03 20:30N 37°19' E 010°53'713.1
2018-Feb-03 20:00N 37°15' E 010°47'  

Dump ship's entire track history